sensor_id;sensor_type;location;lat;lon;timestamp;P1;durP1;ratioP1;P2;durP2;ratioP2
5742;SDS011;2896;53.500;10.020;2023-05-06T00:01:38;9.83;;;5.80;;
5742;SDS011;2896;53.500;10.020;2023-05-06T00:04:05;17.40;;;5.60;;
5742;SDS011;2896;53.500;10.020;2023-05-06T00:06:33;10.60;;;6.27;;
5742;SDS011;2896;53.500;10.020;2023-05-06T00:08:59;7.87;;;5.50;;
5742;SDS011;2896;53.500;10.020;2023-05-06T00:11:26;10.43;;;5.83;;
5742;SDS011;2896;53.500;10.020;2023-05-06T00:13:53;10.80;;;5.20;;
5742;SDS011;2896;53.500;10.020;2023-05-06T00:16:21;15.77;;;6.03;;
5742;SDS011;2896;53.500;10.020;2023-05-06T00:18:52;8.07;;;5.33;;
5742;SDS011;2896;53.500;10.020;2023-05-06T00:21:19;8.57;;;5.60;;
5742;SDS011;2896;53.500;10.020;2023-05-06T00:23:47;12.20;;;6.03;;
5742;SDS011;2896;53.500;10.020;2023-05-06T00:26:13;11.47;;;5.80;;
5742;SDS011;2896;53.500;10.020;2023-05-06T00:28:40;12.50;;;5.60;;
5742;SDS011;2896;53.500;10.020;2023-05-06T00:31:07;7.00;;;5.60;;
5742;SDS011;2896;53.500;10.020;2023-05-06T00:33:33;14.40;;;6.97;;
5742;SDS011;2896;53.500;10.020;2023-05-06T00:36:00;10.13;;;5.63;;
5742;SDS011;2896;53.500;10.020;2023-05-06T00:38:27;15.00;;;6.60;;
5742;SDS011;2896;53.500;10.020;2023-05-06T00:40:55;11.70;;;5.90;;
5742;SDS011;2896;53.500;10.020;2023-05-06T00:43:21;13.03;;;5.70;;
5742;SDS011;2896;53.500;10.020;2023-05-06T00:45:48;11.27;;;6.10;;
5742;SDS011;2896;53.500;10.020;2023-05-06T00:48:16;13.57;;;5.80;;
5742;SDS011;2896;53.500;10.020;2023-05-06T00:50:43;13.00;;;6.40;;
5742;SDS011;2896;53.500;10.020;2023-05-06T00:53:10;12.87;;;6.37;;
5742;SDS011;2896;53.500;10.020;2023-05-06T00:55:37;17.93;;;6.60;;
5742;SDS011;2896;53.500;10.020;2023-05-06T00:58:06;9.73;;;5.70;;
5742;SDS011;2896;53.500;10.020;2023-05-06T01:00:33;8.87;;;6.40;;
5742;SDS011;2896;53.500;10.020;2023-05-06T01:03:00;14.33;;;5.90;;
5742;SDS011;2896;53.500;10.020;2023-05-06T01:05:28;15.23;;;6.10;;
5742;SDS011;2896;53.500;10.020;2023-05-06T01:07:59;8.70;;;5.60;;
5742;SDS011;2896;53.500;10.020;2023-05-06T01:10:35;11.60;;;6.43;;
5742;SDS011;2896;53.500;10.020;2023-05-06T01:13:11;11.30;;;6.00;;
5742;SDS011;2896;53.500;10.020;2023-05-06T01:15:43;8.40;;;5.90;;
5742;SDS011;2896;53.500;10.020;2023-05-06T01:18:12;15.60;;;6.37;;
5742;SDS011;2896;53.500;10.020;2023-05-06T01:20:42;10.03;;;5.90;;
5742;SDS011;2896;53.500;10.020;2023-05-06T01:23:12;15.03;;;6.87;;
5742;SDS011;2896;53.500;10.020;2023-05-06T01:25:40;9.00;;;5.90;;
5742;SDS011;2896;53.500;10.020;2023-05-06T01:28:07;10.60;;;6.60;;
5742;SDS011;2896;53.500;10.020;2023-05-06T01:30:38;8.30;;;7.03;;
5742;SDS011;2896;53.500;10.020;2023-05-06T01:33:12;11.60;;;6.57;;
5742;SDS011;2896;53.500;10.020;2023-05-06T01:35:46;12.03;;;6.57;;
5742;SDS011;2896;53.500;10.020;2023-05-06T01:38:21;14.77;;;7.33;;
5742;SDS011;2896;53.500;10.020;2023-05-06T01:40:55;10.70;;;6.67;;
5742;SDS011;2896;53.500;10.020;2023-05-06T01:43:23;9.60;;;6.93;;
5742;SDS011;2896;53.500;10.020;2023-05-06T01:45:53;8.13;;;6.60;;
5742;SDS011;2896;53.500;10.020;2023-05-06T01:48:21;11.60;;;6.60;;
5742;SDS011;2896;53.500;10.020;2023-05-06T01:50:49;10.93;;;7.07;;
5742;SDS011;2896;53.500;10.020;2023-05-06T01:53:20;10.60;;;6.70;;
5742;SDS011;2896;53.500;10.020;2023-05-06T01:55:47;12.40;;;6.00;;
5742;SDS011;2896;53.500;10.020;2023-05-06T01:58:14;19.17;;;7.30;;
5742;SDS011;2896;53.500;10.020;2023-05-06T02:00:40;10.50;;;7.23;;
5742;SDS011;2896;53.500;10.020;2023-05-06T02:03:07;8.60;;;5.77;;
5742;SDS011;2896;53.500;10.020;2023-05-06T02:05:33;15.23;;;7.13;;
5742;SDS011;2896;53.500;10.020;2023-05-06T02:08:00;12.40;;;7.30;;
5742;SDS011;2896;53.500;10.020;2023-05-06T02:10:28;14.80;;;8.03;;
5742;SDS011;2896;53.500;10.020;2023-05-06T02:12:55;13.97;;;7.07;;
5742;SDS011;2896;53.500;10.020;2023-05-06T02:15:22;8.73;;;6.70;;
5742;SDS011;2896;53.500;10.020;2023-05-06T02:17:49;13.83;;;7.13;;
5742;SDS011;2896;53.500;10.020;2023-05-06T02:20:15;12.50;;;7.27;;
5742;SDS011;2896;53.500;10.020;2023-05-06T02:22:42;14.40;;;8.33;;
5742;SDS011;2896;53.500;10.020;2023-05-06T02:25:09;10.40;;;7.77;;
5742;SDS011;2896;53.500;10.020;2023-05-06T02:27:37;11.90;;;7.43;;
5742;SDS011;2896;53.500;10.020;2023-05-06T02:30:04;14.23;;;7.90;;
5742;SDS011;2896;53.500;10.020;2023-05-06T02:32:31;11.70;;;8.00;;
5742;SDS011;2896;53.500;10.020;2023-05-06T02:34:58;12.50;;;7.97;;
5742;SDS011;2896;53.500;10.020;2023-05-06T02:37:24;15.43;;;8.60;;
5742;SDS011;2896;53.500;10.020;2023-05-06T02:39:51;12.87;;;8.80;;
5742;SDS011;2896;53.500;10.020;2023-05-06T02:42:17;11.77;;;8.40;;
5742;SDS011;2896;53.500;10.020;2023-05-06T02:44:46;16.40;;;8.00;;
5742;SDS011;2896;53.500;10.020;2023-05-06T02:47:13;9.87;;;7.87;;
5742;SDS011;2896;53.500;10.020;2023-05-06T02:49:39;10.43;;;7.50;;
5742;SDS011;2896;53.500;10.020;2023-05-06T02:52:06;17.53;;;7.80;;
5742;SDS011;2896;53.500;10.020;2023-05-06T02:54:32;9.77;;;7.53;;
5742;SDS011;2896;53.500;10.020;2023-05-06T02:56:59;12.03;;;8.17;;
5742;SDS011;2896;53.500;10.020;2023-05-06T02:59:26;11.70;;;8.30;;
5742;SDS011;2896;53.500;10.020;2023-05-06T03:01:54;14.17;;;7.73;;
5742;SDS011;2896;53.500;10.020;2023-05-06T03:04:21;11.63;;;8.07;;
5742;SDS011;2896;53.500;10.020;2023-05-06T03:06:48;9.13;;;7.67;;
5742;SDS011;2896;53.500;10.020;2023-05-06T03:09:14;22.40;;;8.17;;
5742;SDS011;2896;53.500;10.020;2023-05-06T03:11:41;9.80;;;7.53;;
5742;SDS011;2896;53.500;10.020;2023-05-06T03:14:08;16.83;;;9.20;;
5742;SDS011;2896;53.500;10.020;2023-05-06T03:16:35;14.53;;;8.97;;
5742;SDS011;2896;53.500;10.020;2023-05-06T03:19:02;14.47;;;9.07;;
5742;SDS011;2896;53.500;10.020;2023-05-06T03:21:29;14.03;;;8.40;;
5742;SDS011;2896;53.500;10.020;2023-05-06T03:23:56;12.13;;;8.50;;
5742;SDS011;2896;53.500;10.020;2023-05-06T03:26:23;12.50;;;8.10;;
5742;SDS011;2896;53.500;10.020;2023-05-06T03:28:49;12.20;;;8.63;;
5742;SDS011;2896;53.500;10.020;2023-05-06T03:31:16;12.80;;;9.37;;
5742;SDS011;2896;53.500;10.020;2023-05-06T03:33:43;11.00;;;9.20;;
5742;SDS011;2896;53.500;10.020;2023-05-06T03:36:10;16.63;;;8.67;;
5742;SDS011;2896;53.500;10.020;2023-05-06T03:38:38;17.10;;;10.00;;
5742;SDS011;2896;53.500;10.020;2023-05-06T03:41:05;10.33;;;8.30;;
5742;SDS011;2896;53.500;10.020;2023-05-06T03:43:31;11.93;;;8.43;;
5742;SDS011;2896;53.500;10.020;2023-05-06T03:45:58;11.20;;;9.17;;
5742;SDS011;2896;53.500;10.020;2023-05-06T03:48:24;11.50;;;8.90;;
5742;SDS011;2896;53.500;10.020;2023-05-06T03:50:51;16.20;;;8.93;;
5742;SDS011;2896;53.500;10.020;2023-05-06T03:53:19;20.90;;;9.00;;
5742;SDS011;2896;53.500;10.020;2023-05-06T03:55:46;8.70;;;7.80;;
5742;SDS011;2896;53.500;10.020;2023-05-06T03:58:13;11.07;;;8.90;;
5742;SDS011;2896;53.500;10.020;2023-05-06T04:00:39;16.77;;;9.97;;
5742;SDS011;2896;53.500;10.020;2023-05-06T04:03:06;11.10;;;9.30;;
5742;SDS011;2896;53.500;10.020;2023-05-06T04:05:32;10.83;;;9.07;;
5742;SDS011;2896;53.500;10.020;2023-05-06T04:07:59;17.27;;;9.70;;
5742;SDS011;2896;53.500;10.020;2023-05-06T04:10:27;13.07;;;9.50;;
5742;SDS011;2896;53.500;10.020;2023-05-06T04:12:54;14.77;;;9.37;;
5742;SDS011;2896;53.500;10.020;2023-05-06T04:15:20;11.43;;;8.77;;
5742;SDS011;2896;53.500;10.020;2023-05-06T04:17:48;12.70;;;8.83;;
5742;SDS011;2896;53.500;10.020;2023-05-06T04:20:15;12.70;;;8.30;;
5742;SDS011;2896;53.500;10.020;2023-05-06T04:22:41;22.03;;;9.50;;
5742;SDS011;2896;53.500;10.020;2023-05-06T04:25:08;12.97;;;9.83;;
5742;SDS011;2896;53.500;10.020;2023-05-06T04:27:37;16.13;;;9.80;;
5742;SDS011;2896;53.500;10.020;2023-05-06T04:30:04;20.53;;;9.47;;
5742;SDS011;2896;53.500;10.020;2023-05-06T04:32:32;23.70;;;10.00;;
5742;SDS011;2896;53.500;10.020;2023-05-06T04:34:59;12.20;;;9.37;;
5742;SDS011;2896;53.500;10.020;2023-05-06T04:37:25;21.87;;;9.80;;
5742;SDS011;2896;53.500;10.020;2023-05-06T04:39:52;13.17;;;9.00;;
5742;SDS011;2896;53.500;10.020;2023-05-06T04:42:19;20.20;;;10.10;;
5742;SDS011;2896;53.500;10.020;2023-05-06T04:44:47;18.37;;;9.20;;
5742;SDS011;2896;53.500;10.020;2023-05-06T04:47:14;14.83;;;9.53;;
5742;SDS011;2896;53.500;10.020;2023-05-06T04:49:41;15.30;;;10.30;;
5742;SDS011;2896;53.500;10.020;2023-05-06T04:52:08;16.43;;;9.27;;
5742;SDS011;2896;53.500;10.020;2023-05-06T04:54:35;15.07;;;9.97;;
5742;SDS011;2896;53.500;10.020;2023-05-06T04:57:01;10.47;;;9.40;;
5742;SDS011;2896;53.500;10.020;2023-05-06T04:59:28;15.47;;;9.43;;
5742;SDS011;2896;53.500;10.020;2023-05-06T05:01:56;13.43;;;9.17;;
5742;SDS011;2896;53.500;10.020;2023-05-06T05:04:23;10.40;;;9.30;;
5742;SDS011;2896;53.500;10.020;2023-05-06T05:06:50;24.20;;;9.63;;
5742;SDS011;2896;53.500;10.020;2023-05-06T05:09:16;11.20;;;9.20;;
5742;SDS011;2896;53.500;10.020;2023-05-06T05:11:43;11.80;;;10.23;;
5742;SDS011;2896;53.500;10.020;2023-05-06T05:14:10;10.40;;;9.30;;
5742;SDS011;2896;53.500;10.020;2023-05-06T05:16:37;11.23;;;9.73;;
5742;SDS011;2896;53.500;10.020;2023-05-06T05:19:05;12.77;;;9.13;;
5742;SDS011;2896;53.500;10.020;2023-05-06T05:21:31;14.10;;;10.13;;
5742;SDS011;2896;53.500;10.020;2023-05-06T05:23:58;12.33;;;8.63;;
5742;SDS011;2896;53.500;10.020;2023-05-06T05:26:24;12.77;;;10.23;;
5742;SDS011;2896;53.500;10.020;2023-05-06T05:28:51;16.10;;;10.17;;
5742;SDS011;2896;53.500;10.020;2023-05-06T05:31:18;13.27;;;9.17;;
5742;SDS011;2896;53.500;10.020;2023-05-06T05:33:45;21.73;;;9.97;;
5742;SDS011;2896;53.500;10.020;2023-05-06T05:36:13;13.17;;;9.67;;
5742;SDS011;2896;53.500;10.020;2023-05-06T05:38:40;16.60;;;8.80;;
5742;SDS011;2896;53.500;10.020;2023-05-06T05:41:07;11.40;;;9.40;;
5742;SDS011;2896;53.500;10.020;2023-05-06T05:43:34;15.60;;;10.10;;
5742;SDS011;2896;53.500;10.020;2023-05-06T05:46:00;23.33;;;9.03;;
5742;SDS011;2896;53.500;10.020;2023-05-06T05:48:27;16.87;;;9.90;;
5742;SDS011;2896;53.500;10.020;2023-05-06T05:50:55;16.60;;;9.73;;
5742;SDS011;2896;53.500;10.020;2023-05-06T05:53:23;15.10;;;10.50;;
5742;SDS011;2896;53.500;10.020;2023-05-06T05:55:49;15.80;;;9.90;;
5742;SDS011;2896;53.500;10.020;2023-05-06T05:58:16;9.83;;;8.83;;
5742;SDS011;2896;53.500;10.020;2023-05-06T06:00:43;12.40;;;10.70;;
5742;SDS011;2896;53.500;10.020;2023-05-06T06:03:09;16.40;;;10.90;;
5742;SDS011;2896;53.500;10.020;2023-05-06T06:05:36;15.97;;;9.40;;
5742;SDS011;2896;53.500;10.020;2023-05-06T06:08:03;13.10;;;10.73;;
5742;SDS011;2896;53.500;10.020;2023-05-06T06:10:31;12.90;;;10.20;;
5742;SDS011;2896;53.500;10.020;2023-05-06T06:12:58;11.17;;;9.90;;
5742;SDS011;2896;53.500;10.020;2023-05-06T06:15:25;13.57;;;10.33;;
5742;SDS011;2896;53.500;10.020;2023-05-06T06:17:51;11.37;;;10.10;;
5742;SDS011;2896;53.500;10.020;2023-05-06T06:20:18;19.53;;;10.17;;
5742;SDS011;2896;53.500;10.020;2023-05-06T06:22:45;14.47;;;9.83;;
5742;SDS011;2896;53.500;10.020;2023-05-06T06:25:12;13.77;;;9.97;;
5742;SDS011;2896;53.500;10.020;2023-05-06T06:27:40;12.47;;;9.70;;
5742;SDS011;2896;53.500;10.020;2023-05-06T06:30:07;15.23;;;11.40;;
5742;SDS011;2896;53.500;10.020;2023-05-06T06:32:34;14.03;;;9.73;;
5742;SDS011;2896;53.500;10.020;2023-05-06T06:35:01;15.87;;;10.73;;
5742;SDS011;2896;53.500;10.020;2023-05-06T06:37:27;12.67;;;10.30;;
5742;SDS011;2896;53.500;10.020;2023-05-06T06:39:54;15.17;;;10.03;;
5742;SDS011;2896;53.500;10.020;2023-05-06T06:42:20;14.90;;;9.60;;
5742;SDS011;2896;53.500;10.020;2023-05-06T06:44:48;17.30;;;10.80;;
5742;SDS011;2896;53.500;10.020;2023-05-06T06:47:15;14.90;;;9.50;;
5742;SDS011;2896;53.500;10.020;2023-05-06T06:49:42;15.03;;;9.40;;
5742;SDS011;2896;53.500;10.020;2023-05-06T06:52:09;14.50;;;10.50;;
5742;SDS011;2896;53.500;10.020;2023-05-06T06:54:36;11.97;;;9.90;;
5742;SDS011;2896;53.500;10.020;2023-05-06T06:57:02;13.93;;;9.07;;
5742;SDS011;2896;53.500;10.020;2023-05-06T06:59:30;14.70;;;10.27;;
5742;SDS011;2896;53.500;10.020;2023-05-06T07:01:57;16.23;;;11.00;;
5742;SDS011;2896;53.500;10.020;2023-05-06T07:04:24;18.40;;;10.00;;
5742;SDS011;2896;53.500;10.020;2023-05-06T07:06:51;16.13;;;11.03;;
5742;SDS011;2896;53.500;10.020;2023-05-06T07:09:17;17.87;;;10.80;;
5742;SDS011;2896;53.500;10.020;2023-05-06T07:11:44;12.93;;;9.47;;
5742;SDS011;2896;53.500;10.020;2023-05-06T07:14:11;15.37;;;10.20;;
5742;SDS011;2896;53.500;10.020;2023-05-06T07:16:38;13.00;;;10.57;;
5742;SDS011;2896;53.500;10.020;2023-05-06T07:19:06;15.53;;;10.80;;
5742;SDS011;2896;53.500;10.020;2023-05-06T07:21:32;15.80;;;10.47;;
5742;SDS011;2896;53.500;10.020;2023-05-06T07:23:59;15.83;;;11.80;;
5742;SDS011;2896;53.500;10.020;2023-05-06T07:26:26;14.70;;;9.90;;
5742;SDS011;2896;53.500;10.020;2023-05-06T07:28:52;17.40;;;10.80;;
5742;SDS011;2896;53.500;10.020;2023-05-06T07:31:19;15.83;;;9.30;;
5742;SDS011;2896;53.500;10.020;2023-05-06T07:33:45;19.20;;;10.80;;
5742;SDS011;2896;53.500;10.020;2023-05-06T07:36:14;19.27;;;10.53;;
5742;SDS011;2896;53.500;10.020;2023-05-06T07:38:41;14.60;;;11.03;;
5742;SDS011;2896;53.500;10.020;2023-05-06T07:41:07;20.20;;;11.30;;
5742;SDS011;2896;53.500;10.020;2023-05-06T07:43:34;18.40;;;10.30;;
5742;SDS011;2896;53.500;10.020;2023-05-06T07:46:01;13.43;;;10.80;;
5742;SDS011;2896;53.500;10.020;2023-05-06T07:48:27;12.93;;;10.07;;
5742;SDS011;2896;53.500;10.020;2023-05-06T07:50:54;19.77;;;11.63;;
5742;SDS011;2896;53.500;10.020;2023-05-06T07:53:22;17.17;;;11.40;;
5742;SDS011;2896;53.500;10.020;2023-05-06T07:55:50;16.33;;;10.83;;
5742;SDS011;2896;53.500;10.020;2023-05-06T07:58:16;15.30;;;10.60;;
5742;SDS011;2896;53.500;10.020;2023-05-06T08:00:43;17.43;;;10.53;;
5742;SDS011;2896;53.500;10.020;2023-05-06T08:03:10;16.70;;;10.07;;
5742;SDS011;2896;53.500;10.020;2023-05-06T08:05:36;14.57;;;10.43;;
5742;SDS011;2896;53.500;10.020;2023-05-06T08:08:03;18.13;;;10.83;;
5742;SDS011;2896;53.500;10.020;2023-05-06T08:10:31;14.13;;;10.80;;
5742;SDS011;2896;53.500;10.020;2023-05-06T08:12:58;24.43;;;11.77;;
5742;SDS011;2896;53.500;10.020;2023-05-06T08:15:25;15.43;;;9.53;;
5742;SDS011;2896;53.500;10.020;2023-05-06T08:17:51;17.33;;;11.27;;
5742;SDS011;2896;53.500;10.020;2023-05-06T08:20:19;18.03;;;11.60;;
5742;SDS011;2896;53.500;10.020;2023-05-06T08:22:46;17.63;;;10.80;;
5742;SDS011;2896;53.500;10.020;2023-05-06T08:25:12;13.40;;;11.30;;
5742;SDS011;2896;53.500;10.020;2023-05-06T08:27:40;17.33;;;10.73;;
5742;SDS011;2896;53.500;10.020;2023-05-06T08:30:08;16.43;;;11.40;;
5742;SDS011;2896;53.500;10.020;2023-05-06T08:32:35;16.97;;;10.37;;
5742;SDS011;2896;53.500;10.020;2023-05-06T08:35:03;18.60;;;10.13;;
5742;SDS011;2896;53.500;10.020;2023-05-06T08:37:30;16.03;;;10.33;;
5742;SDS011;2896;53.500;10.020;2023-05-06T08:39:56;15.83;;;11.63;;
5742;SDS011;2896;53.500;10.020;2023-05-06T08:42:23;19.07;;;10.80;;
5742;SDS011;2896;53.500;10.020;2023-05-06T08:44:52;16.73;;;11.53;;
5742;SDS011;2896;53.500;10.020;2023-05-06T08:47:21;18.50;;;11.30;;
5742;SDS011;2896;53.500;10.020;2023-05-06T08:49:47;22.73;;;11.57;;
5742;SDS011;2896;53.500;10.020;2023-05-06T08:52:14;19.20;;;11.53;;
5742;SDS011;2896;53.500;10.020;2023-05-06T08:54:41;14.73;;;10.10;;
5742;SDS011;2896;53.500;10.020;2023-05-06T08:57:09;16.50;;;11.70;;
5742;SDS011;2896;53.500;10.020;2023-05-06T08:59:37;17.27;;;11.23;;
5742;SDS011;2896;53.500;10.020;2023-05-06T09:02:06;18.30;;;10.50;;
5742;SDS011;2896;53.500;10.020;2023-05-06T09:04:35;18.37;;;11.20;;
5742;SDS011;2896;53.500;10.020;2023-05-06T09:07:02;16.93;;;10.93;;
5742;SDS011;2896;53.500;10.020;2023-05-06T09:09:28;17.80;;;11.07;;
5742;SDS011;2896;53.500;10.020;2023-05-06T09:11:55;15.97;;;10.90;;
5742;SDS011;2896;53.500;10.020;2023-05-06T09:14:22;22.83;;;11.30;;
5742;SDS011;2896;53.500;10.020;2023-05-06T09:16:49;21.37;;;12.03;;
5742;SDS011;2896;53.500;10.020;2023-05-06T09:19:19;17.43;;;11.03;;
5742;SDS011;2896;53.500;10.020;2023-05-06T09:21:47;20.07;;;12.40;;
5742;SDS011;2896;53.500;10.020;2023-05-06T09:24:15;17.33;;;11.73;;
5742;SDS011;2896;53.500;10.020;2023-05-06T09:26:42;16.00;;;11.30;;
5742;SDS011;2896;53.500;10.020;2023-05-06T09:29:10;16.70;;;10.90;;
5742;SDS011;2896;53.500;10.020;2023-05-06T09:31:39;16.63;;;11.40;;
5742;SDS011;2896;53.500;10.020;2023-05-06T09:34:07;16.90;;;11.30;;
5742;SDS011;2896;53.500;10.020;2023-05-06T09:36:36;21.63;;;10.97;;
5742;SDS011;2896;53.500;10.020;2023-05-06T09:39:03;21.17;;;11.47;;
5742;SDS011;2896;53.500;10.020;2023-05-06T09:41:30;17.63;;;11.17;;
5742;SDS011;2896;53.500;10.020;2023-05-06T09:43:57;14.70;;;10.43;;
5742;SDS011;2896;53.500;10.020;2023-05-06T09:46:24;14.93;;;11.80;;
5742;SDS011;2896;53.500;10.020;2023-05-06T09:48:52;17.97;;;11.03;;
5742;SDS011;2896;53.500;10.020;2023-05-06T09:51:20;14.10;;;10.63;;
5742;SDS011;2896;53.500;10.020;2023-05-06T09:53:49;13.30;;;10.30;;
5742;SDS011;2896;53.500;10.020;2023-05-06T09:56:17;13.70;;;10.27;;
5742;SDS011;2896;53.500;10.020;2023-05-06T09:58:45;20.17;;;12.40;;
5742;SDS011;2896;53.500;10.020;2023-05-06T10:01:13;22.70;;;15.90;;
5742;SDS011;2896;53.500;10.020;2023-05-06T10:03:40;19.13;;;14.30;;
5742;SDS011;2896;53.500;10.020;2023-05-06T10:06:09;17.93;;;12.67;;
5742;SDS011;2896;53.500;10.020;2023-05-06T10:08:37;16.40;;;11.33;;
5742;SDS011;2896;53.500;10.020;2023-05-06T10:11:06;18.90;;;12.30;;
5742;SDS011;2896;53.500;10.020;2023-05-06T10:13:34;15.87;;;10.63;;
5742;SDS011;2896;53.500;10.020;2023-05-06T10:16:04;22.70;;;11.13;;
5742;SDS011;2896;53.500;10.020;2023-05-06T10:18:33;17.63;;;11.20;;
5742;SDS011;2896;53.500;10.020;2023-05-06T10:21:02;15.83;;;10.07;;
5742;SDS011;2896;53.500;10.020;2023-05-06T10:23:34;13.07;;;10.03;;
5742;SDS011;2896;53.500;10.020;2023-05-06T10:26:10;20.50;;;10.90;;
5742;SDS011;2896;53.500;10.020;2023-05-06T10:28:38;12.43;;;10.10;;
5742;SDS011;2896;53.500;10.020;2023-05-06T10:31:07;21.40;;;11.37;;
5742;SDS011;2896;53.500;10.020;2023-05-06T10:33:38;14.00;;;11.20;;
5742;SDS011;2896;53.500;10.020;2023-05-06T10:36:08;16.37;;;12.07;;
5742;SDS011;2896;53.500;10.020;2023-05-06T10:38:41;23.93;;;12.03;;
5742;SDS011;2896;53.500;10.020;2023-05-06T10:41:10;22.27;;;12.07;;
5742;SDS011;2896;53.500;10.020;2023-05-06T10:43:38;22.87;;;12.77;;
5742;SDS011;2896;53.500;10.020;2023-05-06T10:46:07;21.67;;;11.83;;
5742;SDS011;2896;53.500;10.020;2023-05-06T10:48:35;18.73;;;11.73;;
5742;SDS011;2896;53.500;10.020;2023-05-06T10:51:21;22.83;;;12.07;;
5742;SDS011;2896;53.500;10.020;2023-05-06T10:53:59;20.57;;;12.07;;
5742;SDS011;2896;53.500;10.020;2023-05-06T10:56:29;18.80;;;13.00;;
5742;SDS011;2896;53.500;10.020;2023-05-06T10:59:00;20.17;;;12.27;;
5742;SDS011;2896;53.500;10.020;2023-05-06T11:01:30;21.23;;;11.70;;
5742;SDS011;2896;53.500;10.020;2023-05-06T11:03:57;20.53;;;12.17;;
5742;SDS011;2896;53.500;10.020;2023-05-06T11:06:30;21.73;;;17.97;;
5742;SDS011;2896;53.500;10.020;2023-05-06T11:08:58;34.70;;;12.47;;
5742;SDS011;2896;53.500;10.020;2023-05-06T11:14:12;15.67;;;12.67;;
5742;SDS011;2896;53.500;10.020;2023-05-06T11:16:47;22.77;;;13.60;;
5742;SDS011;2896;53.500;10.020;2023-05-06T11:19:17;17.07;;;12.53;;
5742;SDS011;2896;53.500;10.020;2023-05-06T11:21:47;19.03;;;12.53;;
5742;SDS011;2896;53.500;10.020;2023-05-06T11:24:19;35.63;;;12.87;;
5742;SDS011;2896;53.500;10.020;2023-05-06T11:26:49;18.23;;;11.87;;
5742;SDS011;2896;53.500;10.020;2023-05-06T11:29:16;16.40;;;11.70;;
5742;SDS011;2896;53.500;10.020;2023-05-06T11:31:43;18.60;;;12.13;;
5742;SDS011;2896;53.500;10.020;2023-05-06T11:34:11;19.83;;;12.67;;
5742;SDS011;2896;53.500;10.020;2023-05-06T11:36:44;17.40;;;10.80;;
5742;SDS011;2896;53.500;10.020;2023-05-06T11:39:11;16.13;;;11.63;;
5742;SDS011;2896;53.500;10.020;2023-05-06T11:41:38;16.97;;;10.80;;
5742;SDS011;2896;53.500;10.020;2023-05-06T11:44:07;16.30;;;11.20;;
5742;SDS011;2896;53.500;10.020;2023-05-06T11:46:36;18.10;;;11.93;;
5742;SDS011;2896;53.500;10.020;2023-05-06T11:49:02;19.73;;;11.50;;
5742;SDS011;2896;53.500;10.020;2023-05-06T11:51:29;22.70;;;11.47;;
5742;SDS011;2896;53.500;10.020;2023-05-06T11:54:03;21.77;;;12.10;;
5742;SDS011;2896;53.500;10.020;2023-05-06T11:56:45;19.53;;;12.87;;
5742;SDS011;2896;53.500;10.020;2023-05-06T11:59:14;18.23;;;11.70;;
5742;SDS011;2896;53.500;10.020;2023-05-06T12:01:42;17.70;;;10.50;;
5742;SDS011;2896;53.500;10.020;2023-05-06T12:04:10;18.50;;;11.83;;
5742;SDS011;2896;53.500;10.020;2023-05-06T12:06:37;22.90;;;13.10;;
5742;SDS011;2896;53.500;10.020;2023-05-06T12:09:05;19.70;;;11.87;;
5742;SDS011;2896;53.500;10.020;2023-05-06T12:11:33;15.73;;;11.37;;
5742;SDS011;2896;53.500;10.020;2023-05-06T12:14:01;19.43;;;11.60;;
5742;SDS011;2896;53.500;10.020;2023-05-06T12:16:32;20.03;;;11.23;;
5742;SDS011;2896;53.500;10.020;2023-05-06T12:19:00;21.43;;;12.50;;
5742;SDS011;2896;53.500;10.020;2023-05-06T12:21:27;20.20;;;11.47;;
5742;SDS011;2896;53.500;10.020;2023-05-06T12:23:54;18.87;;;12.07;;
5742;SDS011;2896;53.500;10.020;2023-05-06T12:26:23;19.27;;;12.87;;
5742;SDS011;2896;53.500;10.020;2023-05-06T12:29:03;16.23;;;11.40;;
5742;SDS011;2896;53.500;10.020;2023-05-06T12:31:33;23.43;;;13.90;;
5742;SDS011;2896;53.500;10.020;2023-05-06T12:34:00;20.60;;;13.43;;
5742;SDS011;2896;53.500;10.020;2023-05-06T12:36:26;19.60;;;13.23;;
5742;SDS011;2896;53.500;10.020;2023-05-06T12:38:54;25.50;;;12.57;;
5742;SDS011;2896;53.500;10.020;2023-05-06T12:41:22;19.53;;;11.80;;
5742;SDS011;2896;53.500;10.020;2023-05-06T12:43:50;18.50;;;11.93;;
5742;SDS011;2896;53.500;10.020;2023-05-06T12:46:17;18.13;;;11.97;;
5742;SDS011;2896;53.500;10.020;2023-05-06T12:51:29;21.47;;;12.17;;
5742;SDS011;2896;53.500;10.020;2023-05-06T12:53:56;25.23;;;12.57;;
5742;SDS011;2896;53.500;10.020;2023-05-06T12:56:23;22.40;;;13.00;;
5742;SDS011;2896;53.500;10.020;2023-05-06T12:58:56;19.03;;;11.50;;
5742;SDS011;2896;53.500;10.020;2023-05-06T13:01:24;20.83;;;11.90;;
5742;SDS011;2896;53.500;10.020;2023-05-06T13:03:52;22.70;;;12.70;;
5742;SDS011;2896;53.500;10.020;2023-05-06T13:06:21;17.63;;;12.60;;
5742;SDS011;2896;53.500;10.020;2023-05-06T13:08:47;18.00;;;12.90;;
5742;SDS011;2896;53.500;10.020;2023-05-06T13:11:14;16.30;;;10.20;;
5742;SDS011;2896;53.500;10.020;2023-05-06T13:13:41;16.57;;;11.70;;
5742;SDS011;2896;53.500;10.020;2023-05-06T13:16:07;24.20;;;12.23;;
5742;SDS011;2896;53.500;10.020;2023-05-06T13:18:34;16.00;;;11.10;;
5742;SDS011;2896;53.500;10.020;2023-05-06T13:21:01;19.47;;;12.50;;
5742;SDS011;2896;53.500;10.020;2023-05-06T13:23:30;21.07;;;12.43;;
5742;SDS011;2896;53.500;10.020;2023-05-06T13:25:58;17.97;;;12.33;;
5742;SDS011;2896;53.500;10.020;2023-05-06T13:28:28;18.57;;;12.60;;
5742;SDS011;2896;53.500;10.020;2023-05-06T13:30:56;22.03;;;13.90;;
5742;SDS011;2896;53.500;10.020;2023-05-06T13:33:22;22.73;;;13.03;;
5742;SDS011;2896;53.500;10.020;2023-05-06T13:35:49;21.47;;;14.73;;
5742;SDS011;2896;53.500;10.020;2023-05-06T13:38:15;24.73;;;14.90;;
5742;SDS011;2896;53.500;10.020;2023-05-06T13:40:46;17.13;;;11.73;;
5742;SDS011;2896;53.500;10.020;2023-05-06T13:43:15;19.07;;;12.27;;
5742;SDS011;2896;53.500;10.020;2023-05-06T13:45:41;25.33;;;13.30;;
5742;SDS011;2896;53.500;10.020;2023-05-06T13:48:08;18.87;;;12.37;;
5742;SDS011;2896;53.500;10.020;2023-05-06T13:50:35;18.47;;;12.23;;
5742;SDS011;2896;53.500;10.020;2023-05-06T13:53:01;16.67;;;11.87;;
5742;SDS011;2896;53.500;10.020;2023-05-06T13:55:29;19.33;;;11.60;;
5742;SDS011;2896;53.500;10.020;2023-05-06T13:57:57;20.97;;;11.07;;
5742;SDS011;2896;53.500;10.020;2023-05-06T14:00:24;18.20;;;11.80;;
5742;SDS011;2896;53.500;10.020;2023-05-06T14:02:50;16.67;;;11.17;;
5742;SDS011;2896;53.500;10.020;2023-05-06T14:05:17;17.17;;;10.80;;
5742;SDS011;2896;53.500;10.020;2023-05-06T14:07:43;18.50;;;11.40;;
5742;SDS011;2896;53.500;10.020;2023-05-06T14:10:10;16.03;;;10.20;;
5742;SDS011;2896;53.500;10.020;2023-05-06T14:12:37;14.47;;;9.97;;
5742;SDS011;2896;53.500;10.020;2023-05-06T14:15:05;13.27;;;10.40;;
5742;SDS011;2896;53.500;10.020;2023-05-06T14:17:32;16.50;;;11.00;;
5742;SDS011;2896;53.500;10.020;2023-05-06T14:19:59;20.73;;;13.50;;
5742;SDS011;2896;53.500;10.020;2023-05-06T14:22:26;22.50;;;12.80;;
5742;SDS011;2896;53.500;10.020;2023-05-06T14:24:53;17.87;;;11.57;;
5742;SDS011;2896;53.500;10.020;2023-05-06T14:27:20;19.30;;;11.20;;
5742;SDS011;2896;53.500;10.020;2023-05-06T14:29:46;28.33;;;12.67;;
5742;SDS011;2896;53.500;10.020;2023-05-06T14:32:14;15.27;;;10.00;;
5742;SDS011;2896;53.500;10.020;2023-05-06T14:34:41;15.03;;;10.43;;
5742;SDS011;2896;53.500;10.020;2023-05-06T14:37:08;15.50;;;10.93;;
5742;SDS011;2896;53.500;10.020;2023-05-06T14:39:34;16.20;;;10.53;;
5742;SDS011;2896;53.500;10.020;2023-05-06T14:42:01;19.70;;;11.20;;
5742;SDS011;2896;53.500;10.020;2023-05-06T14:44:27;19.30;;;11.87;;
5742;SDS011;2896;53.500;10.020;2023-05-06T14:46:54;20.00;;;12.37;;
5742;SDS011;2896;53.500;10.020;2023-05-06T14:49:22;14.13;;;11.40;;